Time;durP1;ratioP1;P1;durP2;ratioP2;P2;SDS_P1;SDS_P2;PMS_P1;PMS_P2;Temp;Humidity;BMP_temperature;BMP_pressure;BME280_temperature;BME280_humidity;BME280_pressure;Samples;Min_cycle;Max_cycle;Signal;HPM_P1;HPM_P2
2022/03/19 00:02:27;;;;;;;46.00;23.02;;;1.80;99.90;;;;;;5081551;28;20449;-47
2022/03/19 00:04:54;;;;;;;43.00;23.90;;;1.80;99.90;;;;;;5079690;28;20219;-48
2022/03/19 00:07:21;;;;;;;40.03;26.20;;;1.70;99.90;;;;;;5080592;28;20202;-47
2022/03/19 00:09:49;;;;;;;39.70;26.40;;;1.70;99.90;;;;;;5081164;28;20221;-45
2022/03/19 00:12:16;;;;;;;38.25;25.73;;;1.40;99.90;;;;;;5080988;28;20205;-47
2022/03/19 00:14:44;;;;;;;45.15;25.00;;;1.30;99.90;;;;;;5080553;28;20199;-47
2022/03/19 00:17:11;;;;;;;40.70;27.90;;;1.40;99.90;;;;;;5080552;28;20217;-44
2022/03/19 00:19:39;;;;;;;42.13;26.42;;;1.40;99.90;;;;;;5080629;28;20300;-47
2022/03/19 00:22:07;;;;;;;44.10;28.10;;;1.50;99.90;;;;;;5080575;28;20244;-48
2022/03/19 00:24:36;;;;;;;41.97;28.45;;;1.50;99.90;;;;;;5080648;28;20460;-45
2022/03/19 00:27:04;;;;;;;48.28;26.92;;;1.50;99.90;;;;;;5081002;28;20202;-45
2022/03/19 00:29:32;;;;;;;37.75;26.38;;;1.40;99.90;;;;;;5080285;28;20250;-46
2022/03/19 00:31:59;;;;;;;51.33;30.17;;;1.30;99.90;;;;;;5082217;28;20421;-47
2022/03/19 00:34:27;;;;;;;52.72;26.98;;;1.20;99.90;;;;;;5082103;28;20210;-46
2022/03/19 00:36:56;;;;;;;40.38;26.77;;;1.30;99.90;;;;;;5081063;28;20206;-49
2022/03/19 00:39:23;;;;;;;43.95;28.45;;;1.20;99.90;;;;;;5081590;28;20256;-46
2022/03/19 00:41:52;;;;;;;46.55;27.40;;;1.20;99.90;;;;;;5080443;28;20199;-46
2022/03/19 00:44:23;;;;;;;43.53;26.10;;;1.10;99.90;;;;;;5080439;28;20222;-48
2022/03/19 00:46:51;;;;;;;37.05;24.50;;;1.10;99.90;;;;;;5080292;28;20190;-44
2022/03/19 00:49:18;;;;;;;41.03;26.10;;;1.30;99.90;;;;;;5080494;28;20207;-44
2022/03/19 00:51:45;;;;;;;45.40;27.27;;;1.20;99.90;;;;;;5079877;28;20215;-47
2022/03/19 00:54:15;;;;;;;41.10;24.42;;;1.30;99.90;;;;;;5080694;28;20207;-48
2022/03/19 00:56:42;;;;;;;41.50;25.15;;;1.30;99.90;;;;;;5080664;28;20210;-46
2022/03/19 00:59:09;;;;;;;46.50;26.83;;;1.30;99.90;;;;;;5080896;28;20199;-45
2022/03/19 01:01:36;;;;;;;44.00;26.05;;;1.30;99.90;;;;;;5080887;28;20440;-45
2022/03/19 01:04:05;;;;;;;41.67;25.13;;;1.30;99.90;;;;;;5080963;28;20257;-47
2022/03/19 01:06:32;;;;;;;44.42;26.30;;;1.20;99.90;;;;;;5080267;28;20521;-46
2022/03/19 01:08:59;;;;;;;44.35;25.85;;;1.30;99.90;;;;;;5079886;28;20524;-47
2022/03/19 01:11:26;;;;;;;38.33;24.95;;;1.20;99.90;;;;;;5081310;28;20222;-46
2022/03/19 01:13:54;;;;;;;47.80;27.35;;;1.20;99.90;;;;;;5080884;28;20195;-45
2022/03/19 01:16:21;;;;;;;49.08;27.65;;;1.20;99.90;;;;;;5081663;28;20490;-48
2022/03/19 01:18:49;;;;;;;33.00;23.27;;;1.20;99.90;;;;;;5083293;28;20505;-46
2022/03/19 01:21:18;;;;;;;44.03;27.05;;;1.20;99.90;;;;;;5083445;28;20214;-47
2022/03/19 01:23:46;;;;;;;54.03;28.50;;;1.20;99.90;;;;;;5080698;28;20397;-46
2022/03/19 01:26:13;;;;;;;36.08;25.33;;;1.30;99.90;;;;;;5080290;28;20553;-47
2022/03/19 01:28:41;;;;;;;37.65;23.77;;;1.40;99.90;;;;;;5080580;28;20205;-45
2022/03/19 01:31:11;;;;;;;48.00;24.60;;;1.50;99.90;;;;;;5074663;28;20557;-47
2022/03/19 01:33:38;;;;;;;43.00;26.98;;;1.50;99.90;;;;;;5087308;28;20206;-47
2022/03/19 01:36:05;;;;;;;36.75;24.63;;;1.30;99.90;;;;;;5099019;28;20327;-45
2022/03/19 01:38:33;;;;;;;36.88;24.98;;;1.50;99.90;;;;;;5100521;28;20198;-45
2022/03/19 01:41:01;;;;;;;47.85;26.55;;;1.40;99.90;;;;;;5099697;28;20240;-48
2022/03/19 01:43:28;;;;;;;34.25;24.23;;;1.40;99.90;;;;;;5100446;28;20198;-43
2022/03/19 01:45:55;;;;;;;47.03;25.42;;;1.50;99.90;;;;;;5099126;28;20225;-47
2022/03/19 01:48:25;;;;;;;43.22;25.70;;;1.60;99.90;;;;;;5099885;28;20316;-47
2022/03/19 01:50:52;;;;;;;41.30;25.42;;;1.70;99.90;;;;;;5100184;28;20223;-45
2022/03/19 01:53:19;;;;;;;47.67;25.77;;;1.90;99.90;;;;;;5099985;28;20201;-47
2022/03/19 01:55:46;;;;;;;37.25;25.15;;;2.00;99.90;;;;;;5099965;28;20326;-48
2022/03/19 01:58:14;;;;;;;44.10;25.08;;;2.10;99.90;;;;;;5099819;28;20202;-47
2022/03/19 02:00:41;;;;;;;37.83;23.60;;;2.20;99.90;;;;;;5100588;28;20233;-45
2022/03/19 02:03:09;;;;;;;50.65;26.00;;;2.20;99.90;;;;;;5099619;28;20234;-48
2022/03/19 02:05:36;;;;;;;40.20;24.65;;;2.30;99.90;;;;;;5100244;28;20232;-47
2022/03/19 02:08:04;;;;;;;38.35;23.27;;;2.20;99.90;;;;;;5099879;28;20201;-46
2022/03/19 02:10:34;;;;;;;42.00;24.65;;;2.40;99.90;;;;;;5099618;28;20563;-47
2022/03/19 02:13:02;;;;;;;40.65;24.98;;;2.40;99.90;;;;;;5099789;28;20203;-47
2022/03/19 02:15:30;;;;;;;31.38;23.67;;;2.50;99.90;;;;;;5099532;28;20213;-45
2022/03/19 02:17:57;;;;;;;32.67;24.63;;;2.50;99.90;;;;;;5099452;28;20206;-45
2022/03/19 02:20:24;;;;;;;39.85;26.42;;;2.30;99.90;;;;;;5101393;28;20218;-47
2022/03/19 02:25:40;;;;;;;38.92;23.25;;;2.60;99.90;;;;;;5103040;28;20551;-50
2022/03/19 02:28:08;;;;;;;45.95;26.00;;;2.80;99.90;;;;;;5103113;28;20203;-48
2022/03/19 02:30:39;;;;;;;36.63;24.90;;;2.80;99.90;;;;;;5102963;28;20221;-47
2022/03/19 02:33:07;;;;;;;39.22;22.83;;;2.70;99.90;;;;;;5103241;28;20202;-47
2022/03/19 02:35:35;;;;;;;42.28;24.48;;;2.60;99.90;;;;;;5103180;28;20409;-46
2022/03/19 02:38:03;;;;;;;37.30;23.13;;;2.50;99.90;;;;;;5102539;28;20201;-43
2022/03/19 02:40:30;;;;;;;34.70;21.65;;;2.60;99.90;;;;;;5102874;28;20223;-46
2022/03/19 02:42:58;;;;;;;35.30;22.83;;;2.80;99.90;;;;;;5102744;28;20214;-45
2022/03/19 02:45:25;;;;;;;32.80;22.60;;;2.60;99.90;;;;;;5103064;28;20246;-49
2022/03/19 02:47:58;;;;;;;37.35;24.60;;;2.50;99.90;;;;;;5102463;28;20194;-45
2022/03/19 02:50:36;;;;;;;40.17;23.33;;;2.50;99.90;;;;;;5102711;28;20267;-47
2022/03/19 02:53:06;;;;;;;41.30;23.23;;;2.70;99.90;;;;;;5102375;28;20201;-44
2022/03/19 02:55:35;;;;;;;41.22;24.25;;;2.70;99.90;;;;;;5101693;28;20198;-46
2022/03/19 02:58:03;;;;;;;39.42;23.30;;;2.70;99.90;;;;;;5101409;28;20272;-47
2022/03/19 03:00:30;;;;;;;44.60;22.85;;;2.80;99.90;;;;;;5101807;28;20219;-48
2022/03/19 03:02:58;;;;;;;37.53;24.10;;;2.80;99.90;;;;;;5103026;28;20406;-45
2022/03/19 03:05:26;;;;;;;37.78;23.15;;;2.80;99.90;;;;;;5104588;28;20549;-44
2022/03/19 03:07:55;;;;;;;32.33;22.50;;;2.80;99.90;;;;;;5105203;28;20220;-46
2022/03/19 03:10:24;;;;;;;37.78;24.30;;;2.80;99.90;;;;;;5103844;28;20222;-46
2022/03/19 03:12:52;;;;;;;32.88;21.13;;;2.80;99.90;;;;;;5104491;28;20195;-46
2022/03/19 03:15:19;;;;;;;30.38;21.05;;;2.80;99.90;;;;;;5106618;28;20204;-50
2022/03/19 03:17:46;;;;;;;37.10;23.42;;;2.90;99.90;;;;;;5106619;28;20207;-47
2022/03/19 03:20:14;;;;;;;32.20;21.88;;;2.90;99.90;;;;;;5104271;28;20222;-45
2022/03/19 03:22:44;;;;;;;29.52;21.67;;;3.10;99.90;;;;;;5102105;28;20205;-46
2022/03/19 03:25:12;;;;;;;39.88;25.95;;;3.00;99.90;;;;;;5102077;28;20236;-45
2022/03/19 03:27:39;;;;;;;38.58;25.10;;;3.00;99.90;;;;;;5101954;28;20204;-45
2022/03/19 03:30:07;;;;;;;49.85;24.88;;;3.10;99.90;;;;;;5101732;28;20261;-44
2022/03/19 03:32:34;;;;;;;34.88;24.23;;;3.30;99.90;;;;;;5101843;28;20199;-43
2022/03/19 03:35:02;;;;;;;36.95;24.20;;;3.40;99.90;;;;;;5100934;28;20204;-44
2022/03/19 03:37:29;;;;;;;37.80;24.13;;;3.20;99.90;;;;;;5101852;28;20195;-47
2022/03/19 03:39:57;;;;;;;37.13;23.27;;;3.00;99.90;;;;;;5101960;28;20229;-43
2022/03/19 03:42:24;;;;;;;34.78;23.88;;;2.90;99.90;;;;;;5102699;28;20560;-47
2022/03/19 03:44:57;;;;;;;32.53;24.92;;;2.80;99.90;;;;;;5102888;28;20292;-47
2022/03/19 03:47:26;;;;;;;34.90;23.30;;;2.90;99.90;;;;;;5103305;28;20202;-44
2022/03/19 03:49:54;;;;;;;34.75;22.67;;;2.90;99.90;;;;;;5100929;28;20541;-45
2022/03/19 03:52:21;;;;;;;34.38;22.98;;;3.00;99.90;;;;;;5102101;28;20203;-45
2022/03/19 03:54:49;;;;;;;33.63;25.75;;;3.10;99.90;;;;;;5101611;28;20203;-43
2022/03/19 03:57:16;;;;;;;43.60;24.08;;;2.90;99.90;;;;;;5102267;28;20261;-46
2022/03/19 03:59:44;;;;;;;36.17;22.05;;;3.10;99.90;;;;;;5101693;28;20276;-45
2022/03/19 04:02:12;;;;;;;35.92;24.08;;;2.90;99.90;;;;;;5102342;28;20226;-44
2022/03/19 04:04:39;;;;;;;44.60;25.33;;;3.00;99.90;;;;;;5102806;28;20243;-43
2022/03/19 04:07:07;;;;;;;33.90;24.02;;;3.10;99.90;;;;;;5105762;28;20196;-49
2022/03/19 04:09:34;;;;;;;33.50;23.30;;;3.30;99.90;;;;;;5104394;28;20202;-46
2022/03/19 04:12:03;;;;;;;36.03;24.10;;;3.20;99.90;;;;;;5105512;28;20200;-45
2022/03/19 04:14:30;;;;;;;34.25;23.48;;;3.20;99.90;;;;;;5107134;28;20203;-46
2022/03/19 04:16:57;;;;;;;37.03;23.65;;;3.10;99.90;;;;;;5107889;28;20200;-48
2022/03/19 04:19:24;;;;;;;40.00;25.15;;;3.10;99.90;;;;;;5108763;28;20513;-45
2022/03/19 04:21:51;;;;;;;43.28;24.23;;;3.00;99.90;;;;;;5101711;28;20196;-45
2022/03/19 04:24:19;;;;;;;37.63;23.95;;;3.00;99.90;;;;;;5100893;28;20196;-47
2022/03/19 04:26:47;;;;;;;35.58;26.05;;;3.20;99.90;;;;;;5100943;28;20223;-46
2022/03/19 04:29:14;;;;;;;43.15;25.45;;;3.20;99.90;;;;;;5100409;28;20202;-46
2022/03/19 04:31:41;;;;;;;44.95;26.42;;;3.20;99.90;;;;;;5100667;28;20223;-44
2022/03/19 04:34:09;;;;;;;39.85;23.42;;;3.20;99.90;;;;;;5100253;28;20249;-49
2022/03/19 04:36:39;;;;;;;35.50;22.48;;;3.20;99.90;;;;;;5100845;28;20380;-47
2022/03/19 04:39:08;;;;;;;40.60;25.70;;;3.30;99.90;;;;;;5100159;28;20214;-47
2022/03/19 04:41:37;;;;;;;34.97;24.77;;;3.40;99.90;;;;;;5100595;28;20226;-47
2022/03/19 04:44:05;;;;;;;32.63;23.38;;;3.50;99.90;;;;;;5099956;28;20203;-46
2022/03/19 04:46:33;;;;;;;37.40;23.52;;;3.40;99.90;;;;;;5100657;28;20244;-43
2022/03/19 04:49:01;;;;;;;33.72;23.20;;;3.30;99.90;;;;;;5100464;28;20221;-47
2022/03/19 04:51:38;;;;;;;36.97;24.65;;;3.10;99.90;;;;;;5100163;28;20220;-44
2022/03/19 04:54:06;;;;;;;31.88;23.77;;;2.90;99.90;;;;;;5100362;28;20212;-45
2022/03/19 04:56:34;;;;;;;40.88;25.65;;;3.00;99.90;;;;;;5100658;28;20199;-45
2022/03/19 04:59:03;;;;;;;44.55;26.98;;;3.00;99.90;;;;;;5100568;28;20188;-46
2022/03/19 05:01:32;;;;;;;40.53;27.15;;;2.80;99.90;;;;;;5100080;28;20215;-45
2022/03/19 05:04:00;;;;;;;35.65;24.48;;;2.90;99.90;;;;;;5099921;28;20244;-48
2022/03/19 05:06:27;;;;;;;40.40;25.35;;;2.80;99.90;;;;;;5100126;28;20226;-44
2022/03/19 05:11:41;;;;;;;40.40;26.05;;;3.10;99.90;;;;;;5100388;28;20231;-45
2022/03/19 05:14:09;;;;;;;38.10;23.50;;;3.40;99.90;;;;;;5099868;28;20211;-48
2022/03/19 05:16:37;;;;;;;33.53;24.45;;;3.40;99.90;;;;;;5100186;28;20205;-46
2022/03/19 05:19:05;;;;;;;36.45;24.02;;;3.60;99.90;;;;;;5099587;28;20200;-48
2022/03/19 05:21:32;;;;;;;39.50;25.42;;;3.40;99.90;;;;;;5100007;28;20556;-44
2022/03/19 05:24:00;;;;;;;38.30;23.88;;;3.30;99.90;;;;;;5099455;28;20200;-47
2022/03/19 05:26:28;;;;;;;43.50;25.88;;;3.30;99.90;;;;;;5100245;28;20219;-48
2022/03/19 05:28:59;;;;;;;32.10;25.27;;;3.30;99.90;;;;;;5099561;28;20354;-47
2022/03/19 05:31:32;;;;;;;33.05;22.02;;;3.50;99.90;;;;;;5098921;28;20216;-43
2022/03/19 05:36:47;;;;;;;37.90;24.42;;;3.80;99.90;;;;;;5100030;28;20407;-44
2022/03/19 05:39:14;;;;;;;35.45;25.05;;;3.80;99.90;;;;;;5100021;28;20205;-45
2022/03/19 05:41:42;;;;;;;34.95;24.45;;;3.90;99.90;;;;;;5099836;28;20242;-49
2022/03/19 05:44:10;;;;;;;40.58;24.02;;;3.90;99.90;;;;;;5099743;28;20200;-51
2022/03/19 05:46:37;;;;;;;39.33;25.90;;;3.80;99.90;;;;;;5099829;28;20220;-45
2022/03/19 05:49:04;;;;;;;34.85;23.15;;;3.90;99.90;;;;;;5100075;28;20192;-45
2022/03/19 05:51:32;;;;;;;40.20;22.90;;;4.10;99.90;;;;;;5099592;28;20216;-44
2022/03/19 05:53:59;;;;;;;37.30;24.20;;;4.50;99.90;;;;;;5100145;28;20197;-46
2022/03/19 05:56:26;;;;;;;38.65;22.70;;;4.60;99.90;;;;;;5103753;28;20273;-48
2022/03/19 05:58:55;;;;;;;37.10;23.50;;;4.80;99.90;;;;;;5103244;28;20218;-47
2022/03/19 06:01:26;;;;;;;31.77;20.60;;;4.60;99.90;;;;;;5104556;28;20228;-45
2022/03/19 06:03:54;;;;;;;35.15;20.73;;;4.60;99.90;;;;;;5104238;28;20412;-51
2022/03/19 06:06:23;;;;;;;21.83;13.65;;;4.80;99.90;;;;;;5104247;28;20424;-47
2022/03/19 06:08:50;;;;;;;27.58;14.40;;;4.80;99.90;;;;;;5104118;28;20497;-49
2022/03/19 06:11:18;;;;;;;33.75;15.30;;;4.90;99.90;;;;;;5103887;28;20218;-48
2022/03/19 06:13:46;;;;;;;17.95;13.13;;;4.80;98.80;;;;;;5104047;28;20221;-46
2022/03/19 06:16:13;;;;;;;25.52;15.27;;;5.00;98.60;;;;;;5106271;28;20204;-44
2022/03/19 06:18:45;;;;;;;19.73;13.18;;;5.40;98.00;;;;;;5105803;28;20408;-45
2022/03/19 06:21:14;;;;;;;20.00;13.63;;;6.00;96.30;;;;;;5088476;28;20231;-45
2022/03/19 06:23:41;;;;;;;19.35;13.10;;;6.20;94.80;;;;;;5101445;28;20355;-45
2022/03/19 06:26:08;;;;;;;16.90;12.52;;;5.90;94.60;;;;;;5104320;28;20214;-47
2022/03/19 06:28:35;;;;;;;21.25;15.75;;;5.80;94.40;;;;;;5103162;28;20505;-44
2022/03/19 06:31:03;;;;;;;22.80;15.05;;;5.80;94.80;;;;;;5102677;28;20214;-46
2022/03/19 06:33:31;;;;;;;25.75;15.45;;;5.90;94.50;;;;;;5103319;28;20564;-48
2022/03/19 06:38:44;;;;;;;25.40;14.50;;;6.70;92.90;;;;;;5102804;28;20512;-47
2022/03/19 06:41:13;;;;;;;23.88;15.63;;;6.70;93.00;;;;;;5102786;28;20226;-46
2022/03/19 06:43:40;;;;;;;24.58;16.25;;;6.70;93.30;;;;;;5102806;28;20229;-48
2022/03/19 06:46:08;;;;;;;25.33;16.02;;;7.00;92.60;;;;;;5102861;28;20227;-51
2022/03/19 06:48:35;;;;;;;24.90;15.40;;;7.30;91.50;;;;;;5102548;28;20218;-46
2022/03/19 06:51:02;;;;;;;22.33;14.20;;;7.40;91.60;;;;;;5107299;28;20214;-48
2022/03/19 06:53:30;;;;;;;21.90;12.82;;;7.70;90.20;;;;;;5105537;28;20386;-49
2022/03/19 06:55:57;;;;;;;19.48;12.82;;;7.30;90.40;;;;;;5102622;28;20202;-50
2022/03/19 06:58:25;;;;;;;21.10;13.63;;;7.10;90.20;;;;;;5102640;28;20268;-47
2022/03/19 07:00:52;;;;;;;21.92;13.00;;;7.10;90.10;;;;;;5102874;28;20222;-46
2022/03/19 07:03:20;;;;;;;16.85;12.88;;;7.30;89.40;;;;;;5087512;28;20199;-50
2022/03/19 07:05:48;;;;;;;14.30;10.77;;;7.20;88.60;;;;;;5078329;28;20284;-45
2022/03/19 07:08:15;;;;;;;19.38;12.95;;;7.70;88.20;;;;;;5066931;28;20202;-49
2022/03/19 07:10:42;;;;;;;23.42;13.57;;;7.50;88.90;;;;;;5061849;28;20430;-49
2022/03/19 07:13:10;;;;;;;21.92;13.30;;;8.90;87.10;;;;;;5068743;28;20295;-49
2022/03/19 07:15:37;;;;;;;22.42;13.75;;;10.10;81.60;;;;;;5074729;28;20193;-53
2022/03/19 07:18:04;;;;;;;21.00;15.50;;;10.00;81.20;;;;;;5089957;28;20204;-48
2022/03/19 07:20:31;;;;;;;18.52;12.48;;;10.80;78.90;;;;;;5072550;28;20316;-48
2022/03/19 07:23:05;;;;;;;19.25;13.73;;;9.70;79.40;;;;;;5081607;28;20198;-45
2022/03/19 07:25:40;;;;;;;18.42;13.15;;;9.80;79.00;;;;;;5081703;28;20202;-46
2022/03/19 07:28:09;;;;;;;18.55;12.77;;;8.50;82.00;;;;;;5081134;28;20197;-47
2022/03/19 07:30:37;;;;;;;14.85;12.10;;;7.70;83.90;;;;;;5078536;28;20221;-46
2022/03/19 07:33:05;;;;;;;15.10;12.52;;;6.90;86.90;;;;;;5082234;28;20225;-48
2022/03/19 07:35:32;;;;;;;12.63;9.40;;;6.30;88.70;;;;;;5084611;28;20222;-45
2022/03/19 07:38:02;;;;;;;17.25;12.68;;;5.80;88.80;;;;;;5085319;28;20211;-48
2022/03/19 07:43:15;;;;;;;17.10;11.52;;;5.60;90.90;;;;;;5072217;28;20298;-49
2022/03/19 07:45:48;;;;;;;24.90;13.15;;;5.60;89.80;;;;;;5086258;28;20591;-46
2022/03/19 07:48:15;;;;;;;18.70;12.02;;;5.70;89.40;;;;;;5101447;28;20197;-50
2022/03/19 07:50:53;;;;;;;26.15;12.40;;;6.20;88.70;;;;;;5063800;28;20647;-48
2022/03/19 07:53:20;;;;;;;19.13;12.48;;;8.10;84.00;;;;;;5062324;28;20279;-49
2022/03/19 07:55:47;;;;;;;18.40;13.18;;;9.80;78.40;;;;;;5085319;28;20268;-47
2022/03/19 07:58:17;;;;;;;20.40;13.23;;;10.90;72.30;;;;;;5099338;28;20237;-49
2022/03/19 08:00:45;;;;;;;19.30;15.10;;;10.50;73.00;;;;;;5099346;28;20217;-51
2022/03/19 08:03:13;;;;;;;24.85;15.48;;;11.30;70.50;;;;;;5094691;28;20239;-48
2022/03/19 08:05:41;;;;;;;17.33;14.18;;;11.20;69.00;;;;;;5081427;28;20202;-51
2022/03/19 08:08:08;;;;;;;22.33;14.77;;;11.20;69.60;;;;;;5080733;28;20223;-48
2022/03/19 08:10:37;;;;;;;23.23;15.90;;;11.60;67.20;;;;;;5080884;28;20234;-46
2022/03/19 08:13:07;;;;;;;25.65;16.55;;;11.20;67.40;;;;;;5086338;28;20195;-50
2022/03/19 08:15:37;;;;;;;29.20;16.42;;;10.70;68.20;;;;;;5088943;28;20261;-45
2022/03/19 08:18:05;;;;;;;19.88;16.25;;;10.70;68.20;;;;;;5083642;28;20195;-47
2022/03/19 08:20:32;;;;;;;21.00;15.77;;;10.90;68.90;;;;;;5085106;28;20246;-45
2022/03/19 08:23:00;;;;;;;21.20;16.08;;;11.70;66.50;;;;;;5085505;28;20202;-50
2022/03/19 08:25:27;;;;;;;27.15;19.05;;;12.40;64.70;;;;;;5084592;28;20375;-51
2022/03/19 08:27:57;;;;;;;22.95;18.27;;;12.60;62.70;;;;;;5080583;28;20222;-47
2022/03/19 08:30:30;;;;;;;29.63;18.15;;;12.00;65.30;;;;;;5079789;28;20245;-46
2022/03/19 08:32:57;;;;;;;26.05;18.05;;;12.30;63.00;;;;;;5078876;28;20398;-51
2022/03/19 08:35:25;;;;;;;21.60;17.73;;;12.20;63.00;;;;;;5079600;28;20207;-48
2022/03/19 08:40:15;;;;;;;24.65;16.92;;;11.40;63.80;;;;;;5080530;28;20220;-46
2022/03/19 08:40:40;;;;;;;23.70;17.55;;;11.30;65.10;;;;;;5079860;28;20227;-50
2022/03/19 08:43:08;;;;;;;23.35;16.88;;;10.50;65.60;;;;;;5080206;28;20560;-46
2022/03/19 08:45:35;;;;;;;20.95;17.65;;;10.80;65.90;;;;;;5081239;28;20202;-48
2022/03/19 08:48:03;;;;;;;27.85;19.45;;;11.60;64.80;;;;;;5086492;28;20229;-51
2022/03/19 08:50:30;;;;;;;26.10;18.08;;;12.50;61.70;;;;;;5089315;28;20215;-51
2022/03/19 08:52:57;;;;;;;26.20;16.83;;;13.20;61.00;;;;;;5083206;28;20194;-51
2022/03/19 08:55:24;;;;;;;21.90;17.45;;;12.60;60.40;;;;;;5079486;28;20195;-47
2022/03/19 08:57:52;;;;;;;23.85;15.07;;;12.30;60.30;;;;;;5080337;28;20270;-51
2022/03/19 09:00:24;;;;;;;25.92;18.20;;;12.70;59.80;;;;;;5086574;28;20280;-52
2022/03/19 09:02:58;;;;;;;22.65;16.70;;;11.90;61.00;;;;;;5085818;28;20262;-49
2022/03/19 09:05:32;;;;;;;18.70;14.85;;;12.20;59.60;;;;;;5087309;28;20494;-50
2022/03/19 09:08:00;;;;;;;18.10;13.60;;;11.90;59.00;;;;;;5081942;28;20403;-48
2022/03/19 09:10:27;;;;;;;19.35;13.82;;;13.20;58.10;;;;;;5080388;28;20215;-45
2022/03/19 09:12:55;;;;;;;19.67;14.90;;;13.90;56.60;;;;;;5080284;28;20199;-52
2022/03/19 09:15:23;;;;;;;17.95;14.63;;;13.20;57.10;;;;;;5080042;28;20194;-46
2022/03/19 09:17:50;;;;;;;17.55;13.60;;;12.50;57.30;;;;;;5080011;28;20275;-50
2022/03/19 09:20:18;;;;;;;16.38;13.32;;;12.70;56.90;;;;;;5079636;28;20500;-46
2022/03/19 09:22:45;;;;;;;17.08;12.57;;;12.80;56.20;;;;;;5080270;28;20264;-49
2022/03/19 09:25:12;;;;;;;14.02;12.57;;;12.60;56.00;;;;;;5079395;28;20237;-45
2022/03/19 09:27:39;;;;;;;14.63;12.10;;;12.80;55.70;;;;;;5079874;28;20231;-49
2022/03/19 09:30:08;;;;;;;14.65;10.10;;;12.40;55.90;;;;;;5082916;28;20541;-48
2022/03/19 09:32:36;;;;;;;14.10;9.73;;;11.80;55.70;;;;;;5083922;28;20529;-46
2022/03/19 09:35:04;;;;;;;19.48;11.48;;;10.80;56.60;;;;;;5085631;28;20198;-47
2022/03/19 09:37:31;;;;;;;15.43;9.57;;;9.70;58.80;;;;;;5086187;28;20202;-47
2022/03/19 09:39:59;;;;;;;12.68;9.32;;;9.40;58.90;;;;;;5084624;28;20241;-50
2022/03/19 09:42:28;;;;;;;9.45;8.50;;;8.80;59.00;;;;;;5083712;28;20201;-47
2022/03/19 09:44:56;;;;;;;20.90;10.45;;;8.50;60.70;;;;;;5083478;28;20498;-47
2022/03/19 09:47:26;;;;;;;10.65;9.65;;;8.70;60.50;;;;;;5083536;28;20287;-51
2022/03/19 09:49:55;;;;;;;18.55;9.90;;;8.70;60.50;;;;;;5084655;28;20216;-48
2022/03/19 09:52:27;;;;;;;13.90;10.65;;;8.70;61.30;;;;;;5084613;28;20376;-49
2022/03/19 09:55:00;;;;;;;15.57;12.20;;;8.80;62.50;;;;;;5083869;28;20222;-49
2022/03/19 09:57:30;;;;;;;17.00;10.52;;;8.60;62.60;;;;;;5084978;28;20225;-49
2022/03/19 09:59:57;;;;;;;15.27;10.75;;;8.50;63.20;;;;;;5087511;28;20532;-51
2022/03/19 10:02:24;;;;;;;16.55;11.60;;;8.50;63.20;;;;;;5086443;28;20200;-50
2022/03/19 10:04:53;;;;;;;16.33;9.13;;;8.50;63.80;;;;;;5086324;28;20235;-49
2022/03/19 10:10:11;;;;;;;9.82;8.80;;;8.70;62.90;;;;;;5087119;28;20220;-46
2022/03/19 10:12:45;;;;;;;16.60;8.98;;;8.90;61.70;;;;;;5085668;28;20195;-53
2022/03/19 10:15:12;;;;;;;14.48;9.43;;;8.80;62.00;;;;;;5083116;28;20201;-45
2022/03/19 10:17:45;;;;;;;12.02;8.40;;;8.80;62.50;;;;;;5083387;28;20295;-50
2022/03/19 10:20:13;;;;;;;10.70;7.97;;;8.70;63.40;;;;;;5082795;28;20244;-47
2022/03/19 10:22:44;;;;;;;12.52;9.25;;;8.70;62.70;;;;;;5083604;28;20200;-51
2022/03/19 10:25:13;;;;;;;9.85;8.45;;;8.70;63.30;;;;;;5084536;28;20267;-48
2022/03/19 10:27:42;;;;;;;12.52;8.23;;;8.70;62.80;;;;;;5087397;28;20220;-50
2022/03/19 10:30:11;;;;;;;12.05;8.85;;;8.60;62.40;;;;;;5085094;28;20220;-46
2022/03/19 10:32:40;;;;;;;9.43;7.85;;;8.40;62.20;;;;;;5083117;28;20244;-48
2022/03/19 10:35:33;;;;;;;8.77;7.70;;;8.50;60.70;;;;;;5083126;28;20219;-49
2022/03/19 10:38:19;;;;;;;10.55;7.55;;;8.40;59.30;;;;;;5083090;28;20204;-50
2022/03/19 10:40:48;;;;;;;8.88;7.32;;;8.40;59.30;;;;;;5082507;28;20220;-49
2022/03/19 10:43:24;;;;;;;9.02;6.53;;;8.50;59.70;;;;;;5083019;28;20208;-52
2022/03/19 10:45:54;;;;;;;11.88;7.40;;;8.60;59.70;;;;;;5081281;28;20207;-48
2022/03/19 10:48:23;;;;;;;11.88;7.78;;;8.80;60.00;;;;;;5083309;28;20224;-48
2022/03/19 10:50:53;;;;;;;9.52;8.50;;;8.60;60.60;;;;;;5083012;28;20216;-50
2022/03/19 10:53:22;;;;;;;9.68;8.68;;;8.60;62.10;;;;;;5081269;28;20203;-51
2022/03/19 10:55:54;;;;;;;11.63;7.68;;;8.50;62.10;;;;;;5082409;28;20396;-43
2022/03/19 10:58:21;;;;;;;14.57;8.48;;;8.40;62.30;;;;;;5080943;28;20228;-47
2022/03/19 11:01:07;;;;;;;13.32;9.55;;;8.50;62.80;;;;;;5082550;28;20221;-46
2022/03/19 11:03:39;;;;;;;10.93;8.77;;;8.60;63.20;;;;;;5081910;28;20208;-47
2022/03/19 11:06:08;;;;;;;15.05;8.05;;;8.60;63.50;;;;;;5080723;28;20204;-50
2022/03/19 11:08:41;;;;;;;13.48;8.63;;;8.50;62.50;;;;;;5081932;28;20553;-48
2022/03/19 11:11:14;;;;;;;10.10;8.75;;;8.60;63.20;;;;;;5081227;28;20211;-47
2022/03/19 11:13:46;;;;;;;13.73;8.40;;;8.50;63.80;;;;;;5083804;28;20195;-48
2022/03/19 11:16:18;;;;;;;15.25;12.10;;;8.40;64.30;;;;;;5085382;28;20195;-46
2022/03/19 11:18:47;;;;;;;14.57;9.00;;;8.20;64.40;;;;;;5082035;28;20207;-50
2022/03/19 11:21:15;;;;;;;10.77;8.40;;;8.40;64.70;;;;;;5081505;28;20219;-46
2022/03/19 11:23:51;;;;;;;12.85;8.30;;;8.50;63.50;;;;;;5081993;28;20415;-49
2022/03/19 11:26:23;;;;;;;10.35;8.73;;;8.60;62.70;;;;;;5081713;28;20254;-47
2022/03/19 11:28:51;;;;;;;12.68;8.70;;;8.50;61.90;;;;;;5080541;28;20193;-49
2022/03/19 11:31:29;;;;;;;8.45;7.68;;;8.50;61.50;;;;;;5082130;28;20223;-45
2022/03/19 11:34:13;;;;;;;7.68;6.47;;;8.50;60.90;;;;;;5081414;28;20375;-48
2022/03/19 11:37:02;;;;;;;33.83;8.57;;;8.50;60.00;;;;;;5082017;28;20203;-56
2022/03/19 11:39:29;;;;;;;9.57;7.55;;;8.50;60.10;;;;;;5081423;28;20514;-48
2022/03/19 11:41:56;;;;;;;9.52;7.53;;;8.60;59.60;;;;;;5081814;28;20253;-47
2022/03/19 11:44:25;;;;;;;11.93;7.45;;;8.80;59.60;;;;;;5081555;28;20196;-51
2022/03/19 11:46:57;;;;;;;10.65;7.88;;;8.70;60.20;;;;;;5081406;28;20550;-44
2022/03/19 11:49:51;;;;;;;9.57;7.93;;;8.80;60.00;;;;;;5081121;28;20197;-48
2022/03/19 11:52:46;;;;;;;11.50;7.80;;;8.80;61.40;;;;;;5081157;28;20201;-48
2022/03/19 11:55:20;;;;;;;16.17;8.63;;;8.70;61.30;;;;;;5080520;28;20194;-46
2022/03/19 11:57:47;;;;;;;10.60;7.70;;;8.70;61.60;;;;;;5081092;28;20325;-50
2022/03/19 12:00:19;;;;;;;13.10;9.18;;;8.70;61.30;;;;;;5081479;28;20253;-47
2022/03/19 12:03:16;;;;;;;11.77;8.73;;;8.70;61.30;;;;;;5082163;28;20203;-45
2022/03/19 12:05:48;;;;;;;14.30;10.75;;;8.70;62.00;;;;;;5080675;28;20215;-46
2022/03/19 12:08:24;;;;;;;9.07;8.25;;;8.80;62.70;;;;;;5060908;28;20220;-48
2022/03/19 12:11:02;;;;;;;13.18;8.85;;;8.90;62.30;;;;;;5064949;28;20210;-49
2022/03/19 12:13:30;;;;;;;8.85;7.63;;;9.00;62.20;;;;;;5081362;28;20205;-47
2022/03/19 12:16:02;;;;;;;15.98;9.32;;;9.00;62.30;;;;;;5081006;28;20214;-46
2022/03/19 12:18:39;;;;;;;10.63;9.48;;;9.10;61.70;;;;;;5080754;28;20211;-48
2022/03/19 12:21:10;;;;;;;12.80;9.77;;;9.00;61.90;;;;;;5081309;28;20227;-52
2022/03/19 12:24:06;;;;;;;11.90;9.05;;;9.00;62.70;;;;;;5083398;28;20280;-53
2022/03/19 12:26:41;;;;;;;17.55;11.00;;;8.80;62.80;;;;;;5086325;28;20545;-47
2022/03/19 12:29:12;;;;;;;15.52;10.63;;;8.80;63.10;;;;;;5083308;28;20206;-49
2022/03/19 12:31:44;;;;;;;10.77;7.22;;;8.90;63.70;;;;;;5082781;28;20298;-48
2022/03/19 12:34:22;;;;;;;12.57;8.80;;;8.90;62.10;;;;;;5080703;28;20380;-47
2022/03/19 12:36:52;;;;;;;12.20;8.77;;;8.90;61.90;;;;;;5081136;28;20195;-48
2022/03/19 12:39:19;;;;;;;14.55;10.00;;;8.90;62.00;;;;;;5080357;28;20196;-46
2022/03/19 12:41:46;;;;;;;8.70;7.78;;;9.10;62.10;;;;;;5080937;28;20230;-47
2022/03/19 12:44:36;;;;;;;21.77;11.68;;;9.20;61.70;;;;;;5080393;28;20220;-50
2022/03/19 12:47:06;;;;;;;19.52;10.10;;;9.10;61.90;;;;;;5080886;28;20288;-48
2022/03/19 12:49:35;;;;;;;13.07;8.52;;;9.30;62.90;;;;;;5081032;28;20270;-47
2022/03/19 12:52:10;;;;;;;17.00;9.60;;;9.20;61.80;;;;;;5080896;28;20281;-45
2022/03/19 12:54:55;;;;;;;13.90;9.95;;;9.20;62.50;;;;;;5081321;28;20236;-50
2022/03/19 12:57:25;;;;;;;12.85;9.35;;;9.20;63.00;;;;;;5083074;28;20365;-47
2022/03/19 13:00:00;;;;;;;21.17;10.98;;;9.20;62.20;;;;;;5081305;28;20257;-47
2022/03/19 13:02:27;;;;;;;17.60;11.50;;;9.30;62.30;;;;;;5082141;28;20495;-50
2022/03/19 13:04:55;;;;;;;16.90;10.43;;;9.20;61.40;;;;;;5080413;28;20217;-48
2022/03/19 13:07:23;;;;;;;13.20;9.93;;;9.10;62.10;;;;;;5080347;28;20296;-48